createdAt,value
2017-11-29T00:00:12.624Z,4.29
2017-11-29T00:00:53.150Z,4.18
2017-11-29T00:01:33.731Z,4.32
2017-11-29T00:02:14.252Z,4.23
2017-11-29T00:02:54.769Z,4.36
2017-11-29T00:03:35.294Z,4.33
2017-11-29T00:04:15.808Z,4.32
2017-11-29T00:04:56.340Z,4.36
2017-11-29T00:05:36.878Z,4.26
2017-11-29T00:06:17.400Z,4.4
2017-11-29T00:06:57.926Z,4.3
2017-11-29T00:07:38.448Z,4.33
2017-11-29T00:08:18.961Z,4.37
2017-11-29T00:08:59.478Z,4.37
2017-11-29T00:09:40.004Z,4.29
2017-11-29T00:10:20.515Z,4.32
2017-11-29T00:11:01.033Z,4.4
2017-11-29T00:11:41.565Z,4.36
2017-11-29T00:12:22.085Z,4.3
2017-11-29T00:13:02.627Z,4.33
2017-11-29T00:13:43.129Z,4.34
2017-11-29T00:14:23.633Z,4.34
2017-11-29T00:15:04.153Z,4.37
2017-11-29T00:15:44.680Z,4.33
2017-11-29T00:16:25.204Z,4.42
2017-11-29T00:17:05.706Z,4.3
2017-11-29T00:17:46.226Z,4.4
2017-11-29T00:18:26.755Z,4.36
2017-11-29T00:19:07.288Z,4.44
2017-11-29T00:19:47.798Z,4.4
2017-11-29T00:20:28.318Z,4.32
2017-11-29T00:21:08.857Z,4.33
2017-11-29T00:21:49.430Z,4.33
2017-11-29T00:22:29.948Z,4.33
2017-11-29T00:23:10.469Z,4.36
2017-11-29T00:23:50.982Z,4.4
2017-11-29T00:24:31.491Z,4.48
2017-11-29T00:25:12.002Z,4.41
2017-11-29T00:25:52.512Z,4.4
2017-11-29T00:26:33.053Z,4.3
2017-11-29T00:27:13.586Z,4.3
2017-11-29T00:27:54.104Z,4.33
2017-11-29T00:28:34.631Z,4.36
2017-11-29T00:29:15.153Z,4.32
2017-11-29T00:29:55.668Z,4.36
2017-11-29T00:30:36.188Z,4.34
2017-11-29T00:31:16.714Z,4.4
2017-11-29T00:31:57.242Z,4.33
2017-11-29T00:32:37.756Z,4.29
2017-11-29T00:33:18.292Z,4.27
2017-11-29T00:33:58.815Z,4.34
2017-11-29T00:34:39.341Z,4.33
2017-11-29T00:35:19.851Z,4.34
2017-11-29T00:36:00.366Z,4.29
2017-11-29T00:36:40.903Z,4.34
2017-11-29T00:37:21.434Z,4.23
2017-11-29T00:38:01.941Z,4.33
2017-11-29T00:38:42.467Z,4.27
2017-11-29T00:39:22.992Z,4.3
2017-11-29T00:40:03.514Z,4.36
2017-11-29T00:40:44.037Z,4.32
2017-11-29T00:41:24.568Z,4.2
2017-11-29T00:42:05.078Z,4.23
2017-11-29T00:42:45.595Z,4.27
2017-11-29T00:43:26.144Z,4.22
2017-11-29T00:44:06.663Z,4.29
2017-11-29T00:44:47.182Z,4.27
2017-11-29T00:45:27.693Z,4.16
2017-11-29T00:46:08.238Z,4.18
2017-11-29T00:46:48.744Z,4.18
2017-11-29T00:47:29.280Z,4.22
2017-11-29T00:48:09.790Z,4.22
2017-11-29T00:48:50.299Z,4.3
2017-11-29T00:49:30.815Z,4.22
2017-11-29T00:50:11.339Z,4.26
2017-11-29T00:50:51.863Z,4.2
2017-11-29T00:51:32.372Z,4.26
2017-11-29T00:52:12.895Z,4.23
2017-11-29T00:52:53.416Z,4.23
2017-11-29T00:53:33.949Z,4.27
2017-11-29T00:54:14.475Z,4.22
2017-11-29T00:54:55.022Z,4.24
2017-11-29T00:55:35.513Z,4.24
2017-11-29T00:56:16.025Z,4.23
2017-11-29T00:56:56.547Z,4.27
2017-11-29T00:57:37.078Z,4.27
2017-11-29T00:58:17.587Z,4.27
2017-11-29T00:58:58.107Z,4.27
2017-11-29T00:59:38.650Z,4.3
2017-11-29T01:00:19.166Z,4.32
2017-11-29T01:00:59.678Z,4.32
2017-11-29T01:01:40.199Z,4.33
2017-11-29T01:02:20.714Z,4.33
2017-11-29T01:03:01.224Z,4.3
2017-11-29T01:03:41.749Z,4.23
2017-11-29T01:04:22.266Z,4.29
2017-11-29T01:05:02.766Z,4.33
2017-11-29T01:05:43.286Z,4.22
2017-11-29T01:06:23.822Z,4.3
2017-11-29T01:07:04.348Z,4.24
2017-11-29T01:07:44.864Z,4.29
2017-11-29T01:08:25.373Z,4.29
2017-11-29T01:09:05.904Z,4.23
2017-11-29T01:09:46.428Z,4.23
2017-11-29T01:10:26.960Z,4.23
2017-11-29T01:11:07.490Z,4.26
2017-11-29T01:11:48.011Z,4.26
2017-11-29T01:12:28.522Z,4.2
2017-11-29T01:13:09.050Z,4.27
2017-11-29T01:13:49.581Z,4.26
2017-11-29T01:14:30.108Z,4.18
2017-11-29T01:15:10.619Z,4.23
2017-11-29T01:15:51.148Z,4.2
2017-11-29T01:16:31.666Z,4.24
2017-11-29T01:17:12.186Z,4.24
2017-11-29T01:17:52.707Z,4.23
2017-11-29T01:18:33.232Z,4.29
2017-11-29T01:19:13.752Z,4.23
2017-11-29T01:19:54.280Z,4.15
2017-11-29T01:20:34.785Z,4.27
2017-11-29T01:21:15.314Z,4.29
2017-11-29T01:21:55.832Z,4.14
2017-11-29T01:22:36.356Z,4.2
2017-11-29T01:23:16.899Z,4.26
2017-11-29T01:23:57.414Z,4.26
2017-11-29T01:24:37.943Z,4.23
2017-11-29T01:25:18.462Z,4.23
2017-11-29T01:25:58.987Z,4.23
2017-11-29T01:26:39.529Z,4.18
2017-11-29T01:27:20.056Z,4.23
2017-11-29T01:28:00.587Z,4.12
2017-11-29T01:28:41.111Z,4.16
2017-11-29T01:29:21.602Z,4.09
2017-11-29T01:30:02.131Z,4.14
2017-11-29T01:30:42.653Z,4.24
2017-11-29T01:31:23.173Z,4.2
2017-11-29T01:32:03.692Z,4.15
2017-11-29T01:32:44.221Z,4.09
2017-11-29T01:33:24.745Z,4.16
2017-11-29T01:34:05.283Z,4.2
2017-11-29T01:34:45.809Z,4.2
2017-11-29T01:35:26.325Z,4.22
2017-11-29T01:36:06.840Z,4.16
2017-11-29T01:36:47.365Z,4.16
2017-11-29T01:37:27.882Z,4.15
2017-11-29T01:38:08.407Z,4.2
2017-11-29T01:38:48.931Z,4.12
2017-11-29T01:39:29.465Z,4.14
2017-11-29T01:40:09.973Z,4.05
2017-11-29T01:40:50.504Z,4.09
2017-11-29T01:41:31.033Z,4.08
2017-11-29T01:42:11.565Z,4.15
2017-11-29T01:42:52.078Z,4.15
2017-11-29T01:43:32.596Z,4.05
2017-11-29T01:44:13.116Z,4.06
2017-11-29T01:44:53.633Z,4.12
2017-11-29T01:45:34.176Z,4.12
2017-11-29T01:46:14.673Z,4.12
2017-11-29T01:46:55.192Z,4.15
2017-11-29T01:47:35.716Z,4.12
2017-11-29T01:48:16.249Z,4.14
2017-11-29T01:48:56.780Z,4.12
2017-11-29T01:49:37.315Z,4.16
2017-11-29T01:50:17.842Z,4.2
2017-11-29T01:50:58.354Z,4.16
2017-11-29T01:51:38.874Z,4.12
2017-11-29T01:52:19.392Z,4.14
2017-11-29T01:52:59.910Z,4.16
2017-11-29T01:53:40.446Z,4.12
2017-11-29T01:54:20.980Z,4.16
2017-11-29T01:55:01.503Z,4.16
2017-11-29T01:55:42.016Z,4.16
2017-11-29T01:56:22.549Z,4.12
2017-11-29T01:57:03.079Z,4.16
2017-11-29T01:57:43.595Z,4.08
2017-11-29T01:58:24.147Z,4.16
2017-11-29T01:59:04.667Z,4.11
2017-11-29T01:59:45.201Z,4.06
2017-11-29T02:00:25.736Z,4.11
2017-11-29T02:01:06.265Z,4.09
2017-11-29T02:01:46.788Z,4.12
2017-11-29T02:02:27.314Z,4.12
2017-11-29T02:03:07.822Z,4.18
2017-11-29T02:03:48.337Z,4.18
2017-11-29T02:04:28.872Z,4.18
2017-11-29T02:05:09.371Z,4.12
2017-11-29T02:05:49.886Z,4.09
2017-11-29T02:06:30.418Z,4.14
2017-11-29T02:07:10.942Z,4.05
2017-11-29T02:07:51.453Z,4.05
2017-11-29T02:08:31.989Z,4.06
2017-11-29T02:09:12.493Z,4.02
2017-11-29T02:09:53.013Z,4.05
2017-11-29T02:10:33.533Z,4.06
2017-11-29T02:11:14.046Z,4.04
2017-11-29T02:11:54.569Z,4.02
2017-11-29T02:12:35.085Z,4.04
2017-11-29T02:13:15.620Z,4.06
2017-11-29T02:13:56.146Z,4.04
2017-11-29T02:14:36.680Z,4.06
2017-11-29T02:15:17.197Z,3.97
2017-11-29T02:15:57.719Z,4.02
2017-11-29T02:16:38.251Z,4.05
2017-11-29T02:17:18.776Z,3.97
2017-11-29T02:17:59.292Z,3.96
2017-11-29T02:18:39.825Z,4
2017-11-29T02:19:20.351Z,4.08
2017-11-29T02:20:00.874Z,4.09
2017-11-29T02:20:41.412Z,4.06
2017-11-29T02:21:21.923Z,4
2017-11-29T02:22:02.456Z,3.98
2017-11-29T02:22:42.975Z,4.04
2017-11-29T02:23:23.477Z,3.97
2017-11-29T02:24:03.990Z,4.02
2017-11-29T02:24:44.497Z,4.04
2017-11-29T02:25:25.024Z,4
2017-11-29T02:26:05.551Z,3.97
2017-11-29T02:26:46.066Z,4
2017-11-29T02:27:26.594Z,4
2017-11-29T02:28:07.112Z,4
2017-11-29T02:28:47.658Z,4.05
2017-11-29T02:29:28.179Z,3.98
2017-11-29T02:30:08.713Z,4.02
2017-11-29T02:30:49.242Z,4.06
2017-11-29T02:31:29.786Z,4.06
2017-11-29T02:32:10.321Z,4.11
2017-11-29T02:32:50.857Z,4.12
2017-11-29T02:33:31.373Z,4.08
2017-11-29T02:34:11.898Z,4.11
2017-11-29T02:34:52.420Z,4.08
2017-11-29T02:35:32.954Z,4.08
2017-11-29T02:36:13.466Z,4.14
2017-11-29T02:36:53.982Z,4.06
2017-11-29T02:37:34.517Z,4.08
2017-11-29T02:38:15.057Z,4.09
2017-11-29T02:38:55.589Z,4.11
2017-11-29T02:39:36.084Z,4.12
2017-11-29T02:40:16.594Z,4.11
2017-11-29T02:40:57.115Z,4.06
2017-11-29T02:41:37.625Z,4.04
2017-11-29T02:42:18.147Z,4.11
2017-11-29T02:42:58.659Z,4.05
2017-11-29T02:43:39.183Z,4.12
2017-11-29T02:44:19.691Z,4.11
2017-11-29T02:45:00.200Z,4.05
2017-11-29T02:45:40.729Z,4.14
2017-11-29T02:46:21.250Z,4.15
2017-11-29T02:47:01.779Z,4.11
2017-11-29T02:47:42.305Z,4.18
2017-11-29T02:48:22.810Z,4.2
2017-11-29T02:49:03.338Z,4.14
2017-11-29T02:49:43.833Z,4.16
2017-11-29T02:50:24.367Z,4.09
2017-11-29T02:51:04.889Z,4.18
2017-11-29T02:51:45.458Z,4.16
2017-11-29T02:52:26.026Z,4.24
2017-11-29T02:53:06.566Z,4.18
2017-11-29T02:53:47.098Z,4.14
2017-11-29T02:54:27.617Z,4.22
2017-11-29T02:55:08.140Z,4.23
2017-11-29T02:55:48.645Z,4.22
2017-11-29T02:56:29.174Z,4.18
2017-11-29T02:57:09.696Z,4.2
2017-11-29T02:57:50.226Z,4.15
2017-11-29T02:58:30.765Z,4.16
2017-11-29T02:59:11.293Z,4.22
2017-11-29T02:59:51.824Z,4.2
2017-11-29T03:00:32.353Z,4.23
2017-11-29T03:01:12.880Z,4.18
2017-11-29T03:01:53.417Z,4.23
2017-11-29T03:02:33.944Z,4.22
2017-11-29T03:03:14.469Z,4.24
2017-11-29T03:03:54.991Z,4.27
2017-11-29T03:04:35.534Z,4.24
2017-11-29T03:05:16.062Z,4.23
2017-11-29T03:05:56.570Z,4.24
2017-11-29T03:06:37.097Z,4.16
2017-11-29T03:07:17.621Z,4.26
2017-11-29T03:07:58.133Z,4.18
2017-11-29T03:08:38.648Z,4.24
2017-11-29T03:09:19.177Z,4.16
2017-11-29T03:09:59.713Z,4.16
2017-11-29T03:10:40.235Z,4.23
2017-11-29T03:11:20.772Z,4.27
2017-11-29T03:12:01.284Z,4.29
2017-11-29T03:12:41.815Z,4.23
2017-11-29T03:13:22.337Z,4.29
2017-11-29T03:14:02.861Z,4.27
2017-11-29T03:14:43.388Z,4.26
2017-11-29T03:15:23.923Z,4.26
2017-11-29T03:16:04.439Z,4.27
2017-11-29T03:16:44.963Z,4.29
2017-11-29T03:17:25.477Z,4.27
2017-11-29T03:18:06.009Z,4.3
2017-11-29T03:18:46.530Z,4.16
2017-11-29T03:19:27.048Z,4.2
2017-11-29T03:20:07.566Z,4.24
2017-11-29T03:20:48.101Z,4.3
2017-11-29T03:21:28.620Z,4.23
2017-11-29T03:22:09.157Z,4.29
2017-11-29T03:22:49.660Z,4.22
2017-11-29T03:23:30.190Z,4.22
2017-11-29T03:24:10.721Z,4.22
2017-11-29T03:24:51.241Z,4.27
2017-11-29T03:25:31.756Z,4.24
2017-11-29T03:26:12.267Z,4.29
2017-11-29T03:26:52.793Z,4.26
2017-11-29T03:27:33.318Z,4.24
2017-11-29T03:28:13.841Z,4.27
2017-11-29T03:28:54.353Z,4.26
2017-11-29T03:29:34.896Z,4.24
2017-11-29T03:30:15.426Z,4.27
2017-11-29T03:30:55.937Z,4.27
2017-11-29T03:31:36.471Z,4.26
2017-11-29T03:32:16.993Z,4.29
2017-11-29T03:32:57.529Z,4.2
2017-11-29T03:33:38.046Z,4.27
2017-11-29T03:34:18.558Z,4.27
2017-11-29T03:34:59.086Z,4.27
2017-11-29T03:35:39.632Z,4.18
2017-11-29T03:36:20.135Z,4.24
2017-11-29T03:37:00.673Z,4.27
2017-11-29T03:37:41.201Z,4.3
2017-11-29T03:38:21.711Z,4.27
2017-11-29T03:39:02.242Z,4.24
2017-11-29T03:39:42.765Z,4.22
2017-11-29T03:40:23.306Z,4.2
2017-11-29T03:41:03.834Z,4.29
2017-11-29T03:41:44.337Z,4.29
2017-11-29T03:42:24.858Z,4.29
2017-11-29T03:43:05.382Z,4.23
2017-11-29T03:43:45.890Z,4.32
2017-11-29T03:44:26.412Z,4.32
2017-11-29T03:45:06.946Z,4.23
2017-11-29T03:45:47.481Z,4.32
2017-11-29T03:46:28.015Z,4.4
2017-11-29T03:47:08.537Z,4.29
2017-11-29T03:47:49.049Z,4.34
2017-11-29T03:48:29.565Z,4.34
2017-11-29T03:49:10.086Z,4.36
2017-11-29T03:49:50.620Z,4.3
2017-11-29T03:50:31.153Z,4.37
2017-11-29T03:51:11.710Z,4.3
2017-11-29T03:51:52.238Z,4.33
2017-11-29T03:52:32.742Z,4.34
2017-11-29T03:53:13.265Z,4.37
2017-11-29T03:53:53.808Z,4.34
2017-11-29T03:54:34.322Z,4.34
2017-11-29T03:55:14.858Z,4.32
2017-11-29T03:55:55.368Z,4.3
2017-11-29T03:56:35.904Z,4.34
2017-11-29T03:57:16.430Z,4.32
2017-11-29T03:57:56.948Z,4.33
2017-11-29T03:58:37.480Z,4.22
2017-11-29T03:59:17.997Z,4.23
2017-11-29T03:59:58.544Z,4.26
2017-11-29T04:00:39.056Z,4.29
2017-11-29T04:01:19.573Z,4.24
2017-11-29T04:02:00.101Z,4.18
2017-11-29T04:02:40.631Z,4.22
2017-11-29T04:03:21.155Z,4.24
2017-11-29T04:04:01.668Z,4.22
2017-11-29T04:04:42.186Z,4.29
2017-11-29T04:05:22.720Z,4.27
2017-11-29T04:06:03.266Z,4.22
2017-11-29T04:06:43.795Z,4.18
2017-11-29T04:07:24.305Z,4.18
2017-11-29T04:08:04.837Z,4.22
2017-11-29T04:08:45.359Z,4.22
2017-11-29T04:09:25.868Z,4.22
2017-11-29T04:10:06.379Z,4.26
2017-11-29T04:10:46.900Z,4.3
2017-11-29T04:11:27.427Z,4.27
2017-11-29T04:12:07.957Z,4.22
2017-11-29T04:12:48.476Z,4.26
2017-11-29T04:13:29.007Z,4.16
2017-11-29T04:14:09.538Z,4.22
2017-11-29T04:14:50.049Z,4.18
2017-11-29T04:15:30.567Z,4.24
2017-11-29T04:16:11.080Z,4.29
2017-11-29T04:16:51.844Z,4.24
2017-11-29T04:17:32.355Z,4.3
2017-11-29T04:18:12.882Z,4.2
2017-11-29T04:18:53.420Z,4.26
2017-11-29T04:19:33.915Z,4.3
2017-11-29T04:20:14.441Z,4.27
2017-11-29T04:20:54.972Z,4.22
2017-11-29T04:21:35.504Z,4.27
2017-11-29T04:22:16.055Z,4.24
2017-11-29T04:22:56.593Z,4.22
2017-11-29T04:23:37.122Z,4.32
2017-11-29T04:24:17.650Z,4.26
2017-11-29T04:24:58.171Z,4.27
2017-11-29T04:25:38.694Z,4.2
2017-11-29T04:26:19.215Z,4.2
2017-11-29T04:26:59.744Z,4.3
2017-11-29T04:27:40.254Z,4.23
2017-11-29T04:28:20.772Z,4.18
2017-11-29T04:29:01.303Z,4.2
2017-11-29T04:29:41.806Z,4.26
2017-11-29T04:30:22.341Z,4.22
2017-11-29T04:31:02.874Z,4.22
2017-11-29T04:31:43.400Z,4.33
2017-11-29T04:32:23.922Z,4.22
2017-11-29T04:33:04.432Z,4.3
2017-11-29T04:33:44.959Z,4.12
2017-11-29T04:34:25.526Z,4.18
2017-11-29T04:35:06.031Z,4.2
2017-11-29T04:35:46.561Z,4.22
2017-11-29T04:36:27.054Z,4.12
2017-11-29T04:37:07.569Z,4.23
2017-11-29T04:37:48.083Z,4.27
2017-11-29T04:38:28.613Z,4.2
2017-11-29T04:39:09.117Z,4.23
2017-11-29T04:39:49.637Z,4.27
2017-11-29T04:40:30.159Z,4.29
2017-11-29T04:41:10.692Z,4.29
2017-11-29T04:41:51.210Z,4.26
2017-11-29T04:42:31.735Z,4.23
2017-11-29T04:43:12.261Z,4.27
2017-11-29T04:43:52.780Z,4.27
2017-11-29T04:44:33.326Z,4.2
2017-11-29T04:45:13.858Z,4.23
2017-11-29T04:45:54.370Z,4.18
2017-11-29T04:46:34.921Z,4.16
2017-11-29T04:47:15.417Z,4.29
2017-11-29T04:47:55.929Z,4.27
2017-11-29T04:48:36.459Z,4.2
2017-11-29T04:49:16.992Z,4.27
2017-11-29T04:49:57.529Z,4.26
2017-11-29T04:50:38.043Z,4.24
2017-11-29T04:51:18.579Z,4.22
2017-11-29T04:51:59.117Z,4.26
2017-11-29T04:52:39.634Z,4.27
2017-11-29T04:53:20.156Z,4.26
2017-11-29T04:54:00.670Z,4.27
2017-11-29T04:54:41.197Z,4.16
2017-11-29T04:55:21.700Z,4.18
2017-11-29T04:56:02.255Z,4.2
2017-11-29T04:56:42.794Z,4.2
2017-11-29T04:57:23.322Z,4.29
2017-11-29T04:58:03.847Z,4.27
2017-11-29T04:58:44.401Z,4.23
2017-11-29T04:59:24.946Z,4.2
2017-11-29T05:00:05.461Z,4.2
2017-11-29T05:00:45.973Z,4.29
2017-11-29T05:01:26.506Z,4.22
2017-11-29T05:02:07.082Z,4.15
2017-11-29T05:02:47.597Z,4.26
2017-11-29T05:03:28.325Z,4.23
2017-11-29T05:04:09.177Z,4.26
2017-11-29T05:04:49.893Z,4.24
2017-11-29T05:05:30.802Z,4.23
2017-11-29T05:06:11.493Z,4.22
2017-11-29T05:06:52.394Z,4.23
2017-11-29T05:07:34.357Z,4.22
2017-11-29T05:08:16.278Z,4.27
2017-11-29T05:08:58.518Z,4.15
2017-11-29T05:09:40.866Z,4.22
2017-11-29T05:10:23.346Z,4.23
2017-11-29T05:11:05.213Z,4.24
2017-11-29T05:13:05.424Z,4.24
2017-11-29T05:13:45.894Z,4.27
2017-11-29T05:14:26.411Z,4.27
2017-11-29T05:15:06.919Z,4.2
2017-11-29T05:15:47.405Z,4.26
2017-11-29T05:16:27.923Z,4.14
2017-11-29T05:17:08.436Z,4.23
2017-11-29T05:17:48.929Z,4.24
2017-11-29T05:18:29.437Z,4.14
2017-11-29T05:19:09.943Z,4.16
2017-11-29T05:19:50.454Z,4.16
2017-11-29T05:20:30.973Z,4.18
2017-11-29T05:21:11.514Z,4.22
2017-11-29T05:21:52.022Z,4.15
2017-11-29T05:22:32.554Z,4.11
2017-11-29T05:23:13.074Z,4.15
2017-11-29T05:23:53.570Z,4.14
2017-11-29T05:24:34.090Z,4.11
2017-11-29T05:25:14.618Z,4.06
2017-11-29T05:25:55.126Z,4.09
2017-11-29T05:26:35.635Z,4.06
2017-11-29T05:27:16.147Z,4.05
2017-11-29T05:27:56.658Z,4.06
2017-11-29T05:28:37.163Z,3.98
2017-11-29T05:29:17.696Z,4.04
2017-11-29T05:29:58.226Z,4.04
2017-11-29T05:30:38.741Z,4.02
2017-11-29T05:31:19.288Z,4.05
2017-11-29T05:31:59.805Z,4.08
2017-11-29T05:32:40.332Z,4.06
2017-11-29T05:33:21.206Z,4.09
2017-11-29T05:34:01.743Z,4.06
2017-11-29T05:34:42.272Z,4.15
2017-11-29T05:35:22.781Z,4.11
2017-11-29T05:36:03.321Z,4.09
2017-11-29T05:36:43.838Z,4.05
2017-11-29T05:37:24.370Z,4.14
2017-11-29T05:38:04.877Z,4.08
2017-11-29T05:38:45.406Z,4.05
2017-11-29T05:39:25.932Z,4
2017-11-29T05:40:06.454Z,4.06
2017-11-29T05:40:46.983Z,4.05
2017-11-29T05:41:27.520Z,4.02
2017-11-29T05:42:08.054Z,4.08
2017-11-29T05:44:07.199Z,4.15
2017-11-29T05:44:47.689Z,4.11
2017-11-29T05:45:28.217Z,4.02
2017-11-29T05:46:08.737Z,3.98
2017-11-29T05:46:49.833Z,4
2017-11-29T05:47:30.347Z,4
2017-11-29T05:48:10.869Z,4.05
2017-11-29T05:48:51.391Z,4.04
2017-11-29T05:49:31.912Z,4.08
2017-11-29T05:50:12.434Z,4.08
2017-11-29T05:50:52.941Z,4.11
2017-11-29T05:51:33.486Z,3.98
2017-11-29T05:52:13.985Z,3.93
2017-11-29T05:52:54.519Z,3.94
2017-11-29T05:53:35.029Z,4.02
2017-11-29T05:54:15.547Z,3.93
2017-11-29T05:54:56.063Z,3.93
2017-11-29T05:55:36.570Z,3.91
2017-11-29T05:56:17.086Z,3.93
2017-11-29T05:56:57.597Z,3.94
2017-11-29T05:57:38.124Z,4
2017-11-29T05:58:18.619Z,3.87
2017-11-29T05:58:59.138Z,3.88
2017-11-29T05:59:39.664Z,3.91
2017-11-29T06:00:20.173Z,3.98
2017-11-29T06:01:00.683Z,3.94
2017-11-29T06:01:41.196Z,3.98
2017-11-29T06:02:21.717Z,3.93
2017-11-29T06:03:02.251Z,3.97
2017-11-29T06:03:42.777Z,3.98
2017-11-29T06:04:23.312Z,3.93
2017-11-29T06:05:03.828Z,3.91
2017-11-29T06:05:44.402Z,3.94
2017-11-29T06:06:25.191Z,3.93
2017-11-29T06:07:06.094Z,3.91
2017-11-29T06:07:46.765Z,3.97
2017-11-29T06:08:27.285Z,3.94
2017-11-29T06:09:07.804Z,3.9
2017-11-29T06:09:48.314Z,3.98
2017-11-29T06:10:28.825Z,3.93
2017-11-29T06:11:09.348Z,3.93
2017-11-29T06:11:49.853Z,3.96
2017-11-29T06:12:30.383Z,3.93
2017-11-29T06:13:10.907Z,3.93
2017-11-29T06:13:51.432Z,3.96
2017-11-29T06:14:31.954Z,3.97
2017-11-29T06:15:12.474Z,3.96
2017-11-29T06:15:52.999Z,3.97
2017-11-29T06:16:33.568Z,3.97
2017-11-29T06:17:14.105Z,3.86
2017-11-29T06:17:54.640Z,4
2017-11-29T06:18:35.145Z,4
2017-11-29T06:19:15.669Z,3.98
2017-11-29T06:19:56.192Z,3.9
2017-11-29T06:20:36.721Z,3.94
2017-11-29T06:21:17.275Z,3.94
2017-11-29T06:21:57.778Z,4.02
2017-11-29T06:22:38.308Z,3.94
2017-11-29T06:23:18.799Z,3.91
2017-11-29T06:23:59.317Z,3.94
2017-11-29T06:24:39.827Z,3.94
2017-11-29T06:25:20.314Z,3.96
2017-11-29T06:26:00.843Z,3.98
2017-11-29T06:26:41.366Z,3.96
2017-11-29T06:27:21.894Z,3.91
2017-11-29T06:28:02.417Z,3.94
2017-11-29T06:28:42.960Z,3.9
2017-11-29T06:29:23.469Z,3.96
2017-11-29T06:30:04.003Z,3.97
2017-11-29T06:30:44.569Z,3.93
2017-11-29T06:31:25.072Z,3.87
2017-11-29T06:32:05.599Z,3.93
2017-11-29T06:32:46.120Z,3.9
2017-11-29T06:33:26.619Z,3.88
2017-11-29T06:35:21.652Z,3.88
2017-11-29T06:36:02.142Z,3.93
2017-11-29T06:36:42.646Z,3.87
2017-11-29T06:37:23.162Z,3.9
2017-11-29T06:38:03.678Z,3.88
2017-11-29T06:38:44.194Z,3.87
2017-11-29T06:39:24.698Z,3.93
2017-11-29T06:40:05.216Z,3.98
2017-11-29T06:40:47.202Z,4
2017-11-29T06:41:29.088Z,3.93
2017-11-29T06:42:11.268Z,3.93
2017-11-29T06:42:53.143Z,4.02
2017-11-29T06:43:35.746Z,3.94
2017-11-29T06:44:17.204Z,3.98
2017-11-29T06:44:57.744Z,3.96
2017-11-29T06:45:38.246Z,4.04
2017-11-29T06:46:18.763Z,4.04
2017-11-29T06:46:59.307Z,4.02
2017-11-29T06:47:39.802Z,4.05
2017-11-29T06:48:20.318Z,4.08
2017-11-29T06:49:00.846Z,4.06
2017-11-29T06:49:41.369Z,4.04
2017-11-29T06:50:22.271Z,4.04
2017-11-29T06:51:02.852Z,4.04
2017-11-29T06:51:43.361Z,3.97
2017-11-29T06:52:23.931Z,4
2017-11-29T06:53:04.437Z,4
2017-11-29T06:53:44.966Z,4
2017-11-29T06:54:25.450Z,4.05
2017-11-29T06:55:05.966Z,4
2017-11-29T06:55:46.497Z,3.97
2017-11-29T06:56:26.988Z,4.08
2017-11-29T06:57:07.543Z,4.02
2017-11-29T06:57:48.038Z,3.96
2017-11-29T06:58:28.557Z,3.96
2017-11-29T06:59:09.036Z,4.02
2017-11-29T06:59:49.536Z,3.96
2017-11-29T07:00:30.054Z,3.98
2017-11-29T07:01:10.566Z,4
2017-11-29T07:01:51.081Z,3.97
2017-11-29T07:02:31.594Z,3.96
2017-11-29T07:03:12.102Z,4.02
2017-11-29T07:03:52.640Z,4.02
2017-11-29T07:04:33.166Z,4.05
2017-11-29T07:05:13.693Z,4.04
2017-11-29T07:05:54.214Z,4.04
2017-11-29T07:06:34.741Z,4.11
2017-11-29T07:07:15.242Z,4.06
2017-11-29T07:07:55.756Z,4.05
2017-11-29T07:08:36.268Z,4.09
2017-11-29T07:09:16.834Z,4.12
2017-11-29T07:09:58.097Z,4.06
2017-11-29T07:10:38.643Z,4.09
2017-11-29T07:11:19.125Z,4.11
2017-11-29T07:11:59.647Z,4.09
2017-11-29T07:12:40.165Z,4.12
2017-11-29T07:13:20.686Z,4.11
2017-11-29T07:14:01.208Z,4.11
2017-11-29T07:14:41.813Z,4.09
2017-11-29T07:15:22.341Z,4.09
2017-11-29T07:16:02.864Z,4.06
2017-11-29T07:16:43.377Z,4.05
2017-11-29T07:17:23.884Z,4.09
2017-11-29T07:18:04.412Z,4.08
2017-11-29T07:18:44.938Z,4.05
2017-11-29T07:19:25.436Z,4.08
2017-11-29T07:20:05.946Z,4.11
2017-11-29T07:20:46.475Z,4.05
2017-11-29T07:21:27.017Z,4.05
2017-11-29T07:22:07.508Z,4.06
2017-11-29T07:22:48.037Z,4.06
2017-11-29T07:23:28.550Z,4.05
2017-11-29T07:24:09.091Z,4.05
2017-11-29T07:24:49.606Z,4.09
2017-11-29T07:25:30.114Z,4.12
2017-11-29T07:26:10.641Z,4.08
2017-11-29T07:26:51.148Z,4.11
2017-11-29T07:27:31.671Z,4.09
2017-11-29T07:28:12.189Z,4.08
2017-11-29T07:28:52.708Z,4.14
2017-11-29T07:29:33.221Z,4.09
2017-11-29T07:30:13.742Z,4.08
2017-11-29T07:30:54.275Z,4.2
2017-11-29T07:31:34.793Z,4.11
2017-11-29T07:32:15.318Z,4.2
2017-11-29T07:32:55.854Z,4.12
2017-11-29T07:33:36.927Z,4.12
2017-11-29T07:34:17.435Z,4.12
2017-11-29T07:34:57.958Z,4.14
2017-11-29T07:35:38.501Z,4.15
2017-11-29T07:36:19.015Z,4.18
2017-11-29T07:36:59.536Z,4.14
2017-11-29T07:37:40.066Z,4.11
2017-11-29T07:38:20.594Z,4.09
2017-11-29T07:39:01.132Z,4.11
2017-11-29T07:39:41.686Z,4.12
2017-11-29T07:40:22.228Z,4.09
2017-11-29T07:41:02.766Z,4.04
2017-11-29T07:41:43.239Z,4.09
2017-11-29T07:42:23.765Z,4.12
2017-11-29T07:43:04.293Z,4.11
2017-11-29T07:43:44.810Z,4.08
2017-11-29T07:44:25.339Z,4.12
2017-11-29T07:45:05.864Z,4.09
2017-11-29T07:45:46.393Z,4.14
2017-11-29T07:46:26.914Z,4.16
2017-11-29T07:47:07.445Z,4.22
2017-11-29T07:47:47.961Z,4.12
2017-11-29T07:48:28.475Z,4.18
2017-11-29T07:49:08.997Z,4.24
2017-11-29T07:49:49.539Z,4.23
2017-11-29T07:50:30.070Z,4.12
2017-11-29T07:51:10.597Z,4.11
2017-11-29T07:51:51.119Z,4.26
2017-11-29T07:52:31.641Z,4.2
2017-11-29T07:53:12.159Z,4.12
2017-11-29T07:53:52.672Z,4.2
2017-11-29T07:54:33.203Z,4.14
2017-11-29T07:55:13.728Z,4.18
2017-11-29T07:55:54.252Z,4.16
2017-11-29T07:56:34.774Z,4.18
2017-11-29T07:57:15.293Z,4.14
2017-11-29T07:57:55.827Z,4.11
2017-11-29T07:58:36.348Z,4.18
2017-11-29T07:59:16.857Z,4.14
2017-11-29T07:59:57.389Z,4.23
2017-11-29T08:00:37.904Z,4.18
2017-11-29T08:01:18.417Z,4.18
2017-11-29T08:01:58.932Z,4.22
2017-11-29T08:02:39.471Z,4.18
2017-11-29T08:03:19.987Z,4.18
2017-11-29T08:04:00.512Z,4.22
2017-11-29T08:04:41.071Z,4.16
2017-11-29T08:05:21.643Z,4.15
2017-11-29T08:06:02.119Z,4.15
2017-11-29T08:06:42.638Z,4.16
2017-11-29T08:07:23.172Z,4.12
2017-11-29T08:08:03.687Z,4.18
2017-11-29T08:08:44.234Z,4.23
2017-11-29T08:09:24.759Z,4.23
2017-11-29T08:10:05.277Z,4.26
2017-11-29T08:10:45.806Z,4.23
2017-11-29T08:11:26.346Z,4.14
2017-11-29T08:12:06.859Z,4.09
2017-11-29T08:12:47.380Z,4.09
2017-11-29T08:13:27.903Z,4.12
2017-11-29T08:14:08.397Z,4.18
2017-11-29T08:14:48.919Z,4.12
2017-11-29T08:15:29.454Z,4.15
2017-11-29T08:16:09.975Z,4.18
2017-11-29T08:16:50.488Z,4.18
2017-11-29T08:17:31.009Z,4.27
2017-11-29T08:18:11.496Z,4.24
2017-11-29T08:18:52.021Z,4.29
2017-11-29T08:19:32.526Z,4.26
2017-11-29T08:20:13.056Z,4.26
2017-11-29T08:20:53.570Z,4.26
2017-11-29T08:21:34.075Z,4.22
2017-11-29T08:22:14.597Z,4.27
2017-11-29T08:22:55.109Z,4.22
2017-11-29T08:23:35.643Z,4.22
2017-11-29T08:24:16.205Z,4.22
2017-11-29T08:24:56.704Z,4.24
2017-11-29T08:25:37.220Z,4.26
2017-11-29T08:26:17.742Z,4.2
2017-11-29T08:26:58.264Z,4.15
2017-11-29T08:27:38.789Z,4.12
2017-11-29T08:28:19.292Z,4.23
2017-11-29T08:28:59.811Z,4.18
2017-11-29T08:29:40.330Z,4.12
2017-11-29T08:30:20.856Z,4.14
2017-11-29T08:31:01.359Z,4.16
2017-11-29T08:31:41.860Z,4.11
2017-11-29T08:32:22.376Z,4.22
2017-11-29T08:33:02.898Z,4.27
2017-11-29T08:33:43.385Z,4.16
2017-11-29T08:34:23.917Z,4.18
2017-11-29T08:35:04.425Z,4.24
2017-11-29T08:35:44.933Z,4.23
2017-11-29T08:36:25.426Z,4.24
2017-11-29T08:37:05.925Z,4.26
2017-11-29T08:37:46.431Z,4.16
2017-11-29T08:38:26.961Z,4.26
2017-11-29T08:39:07.496Z,4.2
2017-11-29T08:39:48.012Z,4.26
2017-11-29T08:40:28.527Z,4.22
2017-11-29T08:41:09.034Z,4.33
2017-11-29T08:41:49.554Z,4.32
2017-11-29T08:42:30.083Z,4.32
2017-11-29T08:43:10.581Z,4.42
2017-11-29T08:43:51.082Z,4.42
2017-11-29T08:44:31.579Z,4.42
2017-11-29T08:45:12.098Z,4.54
2017-11-29T08:45:52.606Z,4.59
2017-11-29T08:46:33.128Z,4.6
2017-11-29T08:47:13.649Z,4.7
2017-11-29T08:47:54.152Z,4.72
2017-11-29T08:48:34.679Z,4.77
2017-11-29T08:49:15.208Z,4.85
2017-11-29T08:49:55.741Z,4.89
2017-11-29T08:50:36.262Z,4.92
2017-11-29T08:51:16.803Z,4.89
2017-11-29T08:51:57.319Z,4.94
2017-11-29T08:52:37.872Z,4.89
2017-11-29T08:53:18.363Z,4.91
2017-11-29T08:53:58.890Z,4.89
2017-11-29T08:54:39.413Z,4.91
2017-11-29T08:55:19.928Z,4.88
2017-11-29T08:56:00.432Z,4.91
2017-11-29T08:56:40.945Z,4.88
2017-11-29T08:57:21.463Z,4.86
2017-11-29T08:58:01.985Z,4.91
2017-11-29T08:58:42.484Z,4.84
2017-11-29T08:59:22.979Z,4.88
2017-11-29T09:00:03.512Z,4.92
2017-11-29T09:00:44.013Z,4.91
2017-11-29T09:01:24.543Z,4.88
2017-11-29T09:02:05.059Z,4.84
2017-11-29T09:02:45.567Z,4.86
2017-11-29T09:03:26.115Z,4.8
2017-11-29T09:04:06.625Z,4.85
2017-11-29T09:04:47.147Z,4.75
2017-11-29T09:05:27.653Z,4.82
2017-11-29T09:06:08.174Z,4.72